Broome International Airport

Airport
ICAO code: 
YBRM
IATA Code: 
BME
Summary
ICAO Region: 
APAC
Territory: 
Location: 
Broome, Western Australia
Serving: 
Broome
Elevation: 
56 ft
Coordinates: 
Aerial View: 
17° 57' 9.195" S, 122° 14' 1.577" E
Metar
Observation
YBRM 011840Z AUTO 27008KT 9999 // BKN010 28/26 Q1006 RF00.0/000.0
Station
Broome Airport
Date/Time
2021-12-01 18:40:00
Wind direction
270°
Wind speed
08 kts
Lowest cloud amount
broken clouds
Temperature
28°C
Dew point
26°C
Humidity
88%
QNH
1006 hPa
Weather condition
n/a

Runways

Designator Length Width Surface Rops
10/28 2458 45 ASP Yes/Yes
Airport map: 
Aerial View: 

SKYbrary Partners:

Safety knowledge contributed by: